sensor_id;sensor_type;location;lat;lon;timestamp;temperature;humidity
72940;DHT22;61094;51.154;13.570;2022-11-20T00:00:39;-5.30;99.90
72940;DHT22;61094;51.154;13.570;2022-11-20T00:03:06;-5.30;99.90
72940;DHT22;61094;51.154;13.570;2022-11-20T00:05:32;-5.30;99.90
72940;DHT22;61094;51.154;13.570;2022-11-20T00:07:59;-5.30;99.90
72940;DHT22;61094;51.154;13.570;2022-11-20T00:10:26;-5.40;99.90
72940;DHT22;61094;51.154;13.570;2022-11-20T00:12:53;-5.40;99.90
72940;DHT22;61094;51.154;13.570;2022-11-20T00:15:21;-5.40;99.90
72940;DHT22;61094;51.154;13.570;2022-11-20T00:17:47;-5.40;99.90
72940;DHT22;61094;51.154;13.570;2022-11-20T00:20:14;-5.50;99.90
72940;DHT22;61094;51.154;13.570;2022-11-20T00:22:41;-5.50;99.90
72940;DHT22;61094;51.154;13.570;2022-11-20T00:25:08;-5.50;99.90
72940;DHT22;61094;51.154;13.570;2022-11-20T00:27:35;-5.50;99.90
72940;DHT22;61094;51.154;13.570;2022-11-20T00:30:02;-5.50;99.90
72940;DHT22;61094;51.154;13.570;2022-11-20T00:32:30;-5.50;99.90
72940;DHT22;61094;51.154;13.570;2022-11-20T00:34:57;-5.40;99.90
72940;DHT22;61094;51.154;13.570;2022-11-20T00:37:24;-5.40;99.90
72940;DHT22;61094;51.154;13.570;2022-11-20T00:39:51;-5.50;99.90
72940;DHT22;61094;51.154;13.570;2022-11-20T00:42:18;-5.40;99.90
72940;DHT22;61094;51.154;13.570;2022-11-20T00:44:44;-5.50;99.90
72940;DHT22;61094;51.154;13.570;2022-11-20T00:47:11;-5.40;99.90
72940;DHT22;61094;51.154;13.570;2022-11-20T00:49:39;-5.40;99.90
72940;DHT22;61094;51.154;13.570;2022-11-20T00:52:06;-5.50;99.90
72940;DHT22;61094;51.154;13.570;2022-11-20T00:54:33;-5.50;99.90
72940;DHT22;61094;51.154;13.570;2022-11-20T00:56:59;-5.50;99.90
72940;DHT22;61094;51.154;13.570;2022-11-20T00:59:26;-5.50;99.90
72940;DHT22;61094;51.154;13.570;2022-11-20T01:01:53;-5.50;99.90
72940;DHT22;61094;51.154;13.570;2022-11-20T01:04:20;-5.60;99.90
72940;DHT22;61094;51.154;13.570;2022-11-20T01:06:48;-5.60;99.90
72940;DHT22;61094;51.154;13.570;2022-11-20T01:09:14;-5.60;99.90
72940;DHT22;61094;51.154;13.570;2022-11-20T01:11:43;-5.60;99.90
72940;DHT22;61094;51.154;13.570;2022-11-20T01:14:13;-5.60;99.90
72940;DHT22;61094;51.154;13.570;2022-11-20T01:16:42;-5.60;99.90
72940;DHT22;61094;51.154;13.570;2022-11-20T01:19:11;-5.60;99.90
72940;DHT22;61094;51.154;13.570;2022-11-20T01:21:41;-5.60;99.90
72940;DHT22;61094;51.154;13.570;2022-11-20T01:24:12;-5.60;99.90
72940;DHT22;61094;51.154;13.570;2022-11-20T01:26:40;-5.70;99.90
72940;DHT22;61094;51.154;13.570;2022-11-20T01:29:12;-5.70;99.90
72940;DHT22;61094;51.154;13.570;2022-11-20T01:31:39;-5.70;99.90
72940;DHT22;61094;51.154;13.570;2022-11-20T01:34:08;-5.70;99.90
72940;DHT22;61094;51.154;13.570;2022-11-20T01:36:37;-5.70;99.90
72940;DHT22;61094;51.154;13.570;2022-11-20T01:39:05;-5.70;99.90
72940;DHT22;61094;51.154;13.570;2022-11-20T01:41:34;-5.70;99.90
72940;DHT22;61094;51.154;13.570;2022-11-20T01:44:21;-5.70;99.90
72940;DHT22;61094;51.154;13.570;2022-11-20T01:46:54;-5.70;99.90
72940;DHT22;61094;51.154;13.570;2022-11-20T01:49:27;-5.70;99.90
72940;DHT22;61094;51.154;13.570;2022-11-20T01:51:57;-5.70;99.90
72940;DHT22;61094;51.154;13.570;2022-11-20T01:54:29;-5.70;99.90
72940;DHT22;61094;51.154;13.570;2022-11-20T01:57:00;-5.80;99.90
72940;DHT22;61094;51.154;13.570;2022-11-20T01:59:28;-5.80;99.90
72940;DHT22;61094;51.154;13.570;2022-11-20T02:01:56;-5.80;99.90
72940;DHT22;61094;51.154;13.570;2022-11-20T02:04:24;-5.80;99.90
72940;DHT22;61094;51.154;13.570;2022-11-20T02:06:55;-5.80;99.90
72940;DHT22;61094;51.154;13.570;2022-11-20T02:09:23;-5.80;99.90
72940;DHT22;61094;51.154;13.570;2022-11-20T02:11:50;-5.90;99.90
72940;DHT22;61094;51.154;13.570;2022-11-20T02:14:19;-5.90;99.90
72940;DHT22;61094;51.154;13.570;2022-11-20T02:16:47;-5.90;99.90
72940;DHT22;61094;51.154;13.570;2022-11-20T02:19:22;-5.90;99.90
72940;DHT22;61094;51.154;13.570;2022-11-20T02:21:55;-5.90;99.90
72940;DHT22;61094;51.154;13.570;2022-11-20T02:24:24;-5.90;99.90
72940;DHT22;61094;51.154;13.570;2022-11-20T02:26:53;-5.90;99.90
72940;DHT22;61094;51.154;13.570;2022-11-20T02:29:25;-5.90;99.90
72940;DHT22;61094;51.154;13.570;2022-11-20T02:31:54;-5.90;99.90
72940;DHT22;61094;51.154;13.570;2022-11-20T02:34:21;-5.90;99.90
72940;DHT22;61094;51.154;13.570;2022-11-20T02:36:49;-6.00;99.90
72940;DHT22;61094;51.154;13.570;2022-11-20T02:39:17;-6.00;99.90
72940;DHT22;61094;51.154;13.570;2022-11-20T02:41:46;-6.00;99.90
72940;DHT22;61094;51.154;13.570;2022-11-20T02:44:13;-6.00;99.90
72940;DHT22;61094;51.154;13.570;2022-11-20T02:46:40;-6.00;99.90
72940;DHT22;61094;51.154;13.570;2022-11-20T02:49:07;-6.00;99.90
72940;DHT22;61094;51.154;13.570;2022-11-20T02:51:33;-6.00;99.90
72940;DHT22;61094;51.154;13.570;2022-11-20T02:54:00;-6.00;99.90
72940;DHT22;61094;51.154;13.570;2022-11-20T02:56:27;-6.10;99.90
72940;DHT22;61094;51.154;13.570;2022-11-20T02:58:55;-6.10;99.90
72940;DHT22;61094;51.154;13.570;2022-11-20T03:01:22;-6.10;99.90
72940;DHT22;61094;51.154;13.570;2022-11-20T03:03:49;-6.20;99.90
72940;DHT22;61094;51.154;13.570;2022-11-20T03:06:19;-6.20;99.90
72940;DHT22;61094;51.154;13.570;2022-11-20T03:08:46;-6.20;99.90
72940;DHT22;61094;51.154;13.570;2022-11-20T03:11:13;-6.20;99.90
72940;DHT22;61094;51.154;13.570;2022-11-20T03:13:40;-6.20;99.90
72940;DHT22;61094;51.154;13.570;2022-11-20T03:16:10;-6.30;99.90
72940;DHT22;61094;51.154;13.570;2022-11-20T03:18:38;-6.30;99.90
72940;DHT22;61094;51.154;13.570;2022-11-20T03:21:05;-6.30;99.90
72940;DHT22;61094;51.154;13.570;2022-11-20T03:23:33;-6.30;99.90
72940;DHT22;61094;51.154;13.570;2022-11-20T03:26:14;-6.30;99.90
72940;DHT22;61094;51.154;13.570;2022-11-20T03:28:42;-6.30;99.90
72940;DHT22;61094;51.154;13.570;2022-11-20T03:31:14;-6.40;99.90
72940;DHT22;61094;51.154;13.570;2022-11-20T03:33:42;-6.40;99.90
72940;DHT22;61094;51.154;13.570;2022-11-20T03:36:12;-6.40;99.90
72940;DHT22;61094;51.154;13.570;2022-11-20T03:38:40;-6.50;99.90
72940;DHT22;61094;51.154;13.570;2022-11-20T03:41:08;-6.50;99.90
72940;DHT22;61094;51.154;13.570;2022-11-20T03:43:36;-6.40;99.90
72940;DHT22;61094;51.154;13.570;2022-11-20T03:46:04;-6.40;99.90
72940;DHT22;61094;51.154;13.570;2022-11-20T03:48:32;-6.40;99.90
72940;DHT22;61094;51.154;13.570;2022-11-20T03:51:10;-6.40;99.90
72940;DHT22;61094;51.154;13.570;2022-11-20T03:53:37;-6.50;99.90
72940;DHT22;61094;51.154;13.570;2022-11-20T03:56:04;-6.50;99.90
72940;DHT22;61094;51.154;13.570;2022-11-20T03:58:32;-6.50;99.90
72940;DHT22;61094;51.154;13.570;2022-11-20T04:01:05;-6.50;99.90
72940;DHT22;61094;51.154;13.570;2022-11-20T04:03:34;-6.50;99.90
72940;DHT22;61094;51.154;13.570;2022-11-20T04:06:05;-6.50;99.90
72940;DHT22;61094;51.154;13.570;2022-11-20T04:08:32;-6.50;99.90
72940;DHT22;61094;51.154;13.570;2022-11-20T04:11:11;-6.40;99.90
72940;DHT22;61094;51.154;13.570;2022-11-20T04:13:39;-6.50;99.90
72940;DHT22;61094;51.154;13.570;2022-11-20T04:16:07;-6.50;99.90
72940;DHT22;61094;51.154;13.570;2022-11-20T04:18:36;-6.50;99.90
72940;DHT22;61094;51.154;13.570;2022-11-20T04:21:03;-6.50;99.90
72940;DHT22;61094;51.154;13.570;2022-11-20T04:23:30;-6.50;99.90
72940;DHT22;61094;51.154;13.570;2022-11-20T04:26:01;-6.50;99.90
72940;DHT22;61094;51.154;13.570;2022-11-20T04:28:28;-6.50;99.90
72940;DHT22;61094;51.154;13.570;2022-11-20T04:31:01;-6.50;99.90
72940;DHT22;61094;51.154;13.570;2022-11-20T04:33:28;-6.40;99.90
72940;DHT22;61094;51.154;13.570;2022-11-20T04:36:00;-6.40;99.90
72940;DHT22;61094;51.154;13.570;2022-11-20T04:38:27;-6.40;99.90
72940;DHT22;61094;51.154;13.570;2022-11-20T04:40:56;-6.40;99.90
72940;DHT22;61094;51.154;13.570;2022-11-20T04:43:23;-6.40;99.90
72940;DHT22;61094;51.154;13.570;2022-11-20T04:45:50;-6.50;99.90
72940;DHT22;61094;51.154;13.570;2022-11-20T04:48:17;-6.50;99.90
72940;DHT22;61094;51.154;13.570;2022-11-20T04:50:44;-6.50;99.90
72940;DHT22;61094;51.154;13.570;2022-11-20T04:53:12;-6.50;99.90
72940;DHT22;61094;51.154;13.570;2022-11-20T04:55:39;-6.50;99.90
72940;DHT22;61094;51.154;13.570;2022-11-20T04:58:06;-6.50;99.90
72940;DHT22;61094;51.154;13.570;2022-11-20T05:00:33;-6.60;99.90
72940;DHT22;61094;51.154;13.570;2022-11-20T05:03:00;-6.60;99.90
72940;DHT22;61094;51.154;13.570;2022-11-20T05:05:27;-6.70;99.90
72940;DHT22;61094;51.154;13.570;2022-11-20T05:07:55;-6.70;99.90
72940;DHT22;61094;51.154;13.570;2022-11-20T05:10:24;-6.70;99.90
72940;DHT22;61094;51.154;13.570;2022-11-20T05:12:51;-6.80;99.90
72940;DHT22;61094;51.154;13.570;2022-11-20T05:15:18;-6.80;99.90
72940;DHT22;61094;51.154;13.570;2022-11-20T05:17:47;-6.80;99.90
72940;DHT22;61094;51.154;13.570;2022-11-20T05:20:14;-6.80;99.90
72940;DHT22;61094;51.154;13.570;2022-11-20T05:22:41;-6.80;99.90
72940;DHT22;61094;51.154;13.570;2022-11-20T05:25:08;-6.80;99.90
72940;DHT22;61094;51.154;13.570;2022-11-20T05:27:37;-6.80;99.90
72940;DHT22;61094;51.154;13.570;2022-11-20T05:30:05;-6.80;99.90
72940;DHT22;61094;51.154;13.570;2022-11-20T05:32:32;-6.80;99.90
72940;DHT22;61094;51.154;13.570;2022-11-20T05:34:59;-6.80;99.90
72940;DHT22;61094;51.154;13.570;2022-11-20T05:37:26;-6.90;99.90
72940;DHT22;61094;51.154;13.570;2022-11-20T05:39:53;-6.90;99.90
72940;DHT22;61094;51.154;13.570;2022-11-20T05:42:19;-6.90;99.90
72940;DHT22;61094;51.154;13.570;2022-11-20T05:45:00;-6.90;99.90
72940;DHT22;61094;51.154;13.570;2022-11-20T05:47:30;-6.90;99.90
72940;DHT22;61094;51.154;13.570;2022-11-20T05:49:57;-6.90;99.90
72940;DHT22;61094;51.154;13.570;2022-11-20T05:52:27;-6.90;99.90
72940;DHT22;61094;51.154;13.570;2022-11-20T05:54:54;-6.90;99.90
72940;DHT22;61094;51.154;13.570;2022-11-20T05:57:21;-6.90;99.90
72940;DHT22;61094;51.154;13.570;2022-11-20T05:59:48;-6.90;99.90
72940;DHT22;61094;51.154;13.570;2022-11-20T06:02:16;-6.90;99.90
72940;DHT22;61094;51.154;13.570;2022-11-20T06:04:43;-6.90;99.90
72940;DHT22;61094;51.154;13.570;2022-11-20T06:07:09;-6.90;99.90
72940;DHT22;61094;51.154;13.570;2022-11-20T06:09:36;-6.80;99.90
72940;DHT22;61094;51.154;13.570;2022-11-20T06:12:03;-6.80;99.90
72940;DHT22;61094;51.154;13.570;2022-11-20T06:14:30;-6.80;99.90
72940;DHT22;61094;51.154;13.570;2022-11-20T06:16:57;-6.70;99.90
72940;DHT22;61094;51.154;13.570;2022-11-20T06:19:25;-6.70;99.90
72940;DHT22;61094;51.154;13.570;2022-11-20T06:21:52;-6.70;99.90
72940;DHT22;61094;51.154;13.570;2022-11-20T06:24:19;-6.70;99.90
72940;DHT22;61094;51.154;13.570;2022-11-20T06:26:45;-6.70;99.90
72940;DHT22;61094;51.154;13.570;2022-11-20T06:29:12;-6.80;99.90
72940;DHT22;61094;51.154;13.570;2022-11-20T06:31:39;-6.70;99.90
72940;DHT22;61094;51.154;13.570;2022-11-20T06:34:08;-6.80;99.90
72940;DHT22;61094;51.154;13.570;2022-11-20T06:36:36;-6.80;99.90
72940;DHT22;61094;51.154;13.570;2022-11-20T06:39:03;-6.80;99.90
72940;DHT22;61094;51.154;13.570;2022-11-20T06:41:29;-6.80;99.90
72940;DHT22;61094;51.154;13.570;2022-11-20T06:43:56;-6.90;99.90
72940;DHT22;61094;51.154;13.570;2022-11-20T06:46:23;-6.90;99.90
72940;DHT22;61094;51.154;13.570;2022-11-20T06:48:50;-6.90;99.90
72940;DHT22;61094;51.154;13.570;2022-11-20T06:51:17;-6.90;99.90
72940;DHT22;61094;51.154;13.570;2022-11-20T06:53:46;-6.90;99.90
72940;DHT22;61094;51.154;13.570;2022-11-20T06:56:12;-7.00;99.90
72940;DHT22;61094;51.154;13.570;2022-11-20T06:58:39;-7.00;99.90
72940;DHT22;61094;51.154;13.570;2022-11-20T07:01:08;-7.00;99.90
72940;DHT22;61094;51.154;13.570;2022-11-20T07:03:36;-6.90;99.90
72940;DHT22;61094;51.154;13.570;2022-11-20T07:06:03;-6.90;99.90
72940;DHT22;61094;51.154;13.570;2022-11-20T07:08:30;-6.90;99.90
72940;DHT22;61094;51.154;13.570;2022-11-20T07:11:00;-6.90;99.90
72940;DHT22;61094;51.154;13.570;2022-11-20T07:13:28;-6.80;99.90
72940;DHT22;61094;51.154;13.570;2022-11-20T07:15:59;-6.70;99.90
72940;DHT22;61094;51.154;13.570;2022-11-20T07:18:26;-6.70;99.90
72940;DHT22;61094;51.154;13.570;2022-11-20T07:20:53;-6.60;99.90
72940;DHT22;61094;51.154;13.570;2022-11-20T07:23:20;-6.50;99.90
72940;DHT22;61094;51.154;13.570;2022-11-20T07:25:47;-6.30;99.90
72940;DHT22;61094;51.154;13.570;2022-11-20T07:28:15;-6.10;99.90
72940;DHT22;61094;51.154;13.570;2022-11-20T07:30:42;-5.90;99.90
72940;DHT22;61094;51.154;13.570;2022-11-20T07:33:08;-5.70;99.90
72940;DHT22;61094;51.154;13.570;2022-11-20T07:35:35;-5.40;99.90
72940;DHT22;61094;51.154;13.570;2022-11-20T07:38:02;-5.20;99.90
72940;DHT22;61094;51.154;13.570;2022-11-20T07:40:29;-4.90;99.90
72940;DHT22;61094;51.154;13.570;2022-11-20T07:42:56;-4.70;99.90
72940;DHT22;61094;51.154;13.570;2022-11-20T07:45:24;-4.40;99.90
72940;DHT22;61094;51.154;13.570;2022-11-20T07:47:51;-4.20;99.90
72940;DHT22;61094;51.154;13.570;2022-11-20T07:50:18;-3.90;99.90
72940;DHT22;61094;51.154;13.570;2022-11-20T07:52:46;-3.70;99.90
72940;DHT22;61094;51.154;13.570;2022-11-20T07:55:13;-3.40;99.90
72940;DHT22;61094;51.154;13.570;2022-11-20T07:57:40;-3.20;99.90
72940;DHT22;61094;51.154;13.570;2022-11-20T08:00:09;-2.90;99.90
72940;DHT22;61094;51.154;13.570;2022-11-20T08:02:38;-2.70;99.90
72940;DHT22;61094;51.154;13.570;2022-11-20T08:05:06;-2.50;99.90
72940;DHT22;61094;51.154;13.570;2022-11-20T08:07:37;-2.20;99.90
72940;DHT22;61094;51.154;13.570;2022-11-20T08:10:05;-2.00;99.90
72940;DHT22;61094;51.154;13.570;2022-11-20T08:12:32;-1.70;99.90
72940;DHT22;61094;51.154;13.570;2022-11-20T08:15:16;-1.50;99.90
72940;DHT22;61094;51.154;13.570;2022-11-20T08:17:44;-1.20;99.90
72940;DHT22;61094;51.154;13.570;2022-11-20T08:20:11;-1.00;99.90
72940;DHT22;61094;51.154;13.570;2022-11-20T08:22:38;-0.70;99.90
72940;DHT22;61094;51.154;13.570;2022-11-20T08:25:05;-0.40;99.90
72940;DHT22;61094;51.154;13.570;2022-11-20T08:27:32;-0.10;99.90
72940;DHT22;61094;51.154;13.570;2022-11-20T08:29:59;0.20;99.90
72940;DHT22;61094;51.154;13.570;2022-11-20T08:32:26;0.50;99.90
72940;DHT22;61094;51.154;13.570;2022-11-20T08:34:54;1.00;99.90
72940;DHT22;61094;51.154;13.570;2022-11-20T08:37:20;1.40;99.70
72940;DHT22;61094;51.154;13.570;2022-11-20T08:39:47;1.90;99.10
72940;DHT22;61094;51.154;13.570;2022-11-20T08:42:14;2.30;99.90
72940;DHT22;61094;51.154;13.570;2022-11-20T08:44:41;2.60;98.80
72940;DHT22;61094;51.154;13.570;2022-11-20T08:47:08;2.90;92.10
72940;DHT22;61094;51.154;13.570;2022-11-20T08:49:35;3.20;94.90
72940;DHT22;61094;51.154;13.570;2022-11-20T08:52:03;3.60;94.40
72940;DHT22;61094;51.154;13.570;2022-11-20T08:54:31;4.00;94.20
72940;DHT22;61094;51.154;13.570;2022-11-20T08:56:57;4.30;93.90
72940;DHT22;61094;51.154;13.570;2022-11-20T08:59:24;4.50;85.70
72940;DHT22;61094;51.154;13.570;2022-11-20T09:01:51;4.70;90.90
72940;DHT22;61094;51.154;13.570;2022-11-20T09:04:18;4.90;87.60
72940;DHT22;61094;51.154;13.570;2022-11-20T09:06:44;5.10;67.70
72940;DHT22;61094;51.154;13.570;2022-11-20T09:09:13;5.20;93.10
72940;DHT22;61094;51.154;13.570;2022-11-20T09:11:39;5.30;90.90
72940;DHT22;61094;51.154;13.570;2022-11-20T09:14:06;5.50;95.00
72940;DHT22;61094;51.154;13.570;2022-11-20T09:16:33;5.70;60.10
72940;DHT22;61094;51.154;13.570;2022-11-20T09:19:00;5.90;92.50
72940;DHT22;61094;51.154;13.570;2022-11-20T09:21:27;6.10;95.40
72940;DHT22;61094;51.154;13.570;2022-11-20T09:23:53;6.10;95.30
72940;DHT22;61094;51.154;13.570;2022-11-20T09:26:21;6.20;93.20
72940;DHT22;61094;51.154;13.570;2022-11-20T09:28:48;6.30;95.80
72940;DHT22;61094;51.154;13.570;2022-11-20T09:31:20;6.40;91.20
72940;DHT22;61094;51.154;13.570;2022-11-20T09:33:48;6.50;96.70
72940;DHT22;61094;51.154;13.570;2022-11-20T09:36:15;6.50;97.00
72940;DHT22;61094;51.154;13.570;2022-11-20T09:38:43;6.40;90.60
72940;DHT22;61094;51.154;13.570;2022-11-20T09:44:24;6.40;81.10
72940;DHT22;61094;51.154;13.570;2022-11-20T09:46:56;6.40;69.40
72940;DHT22;61094;51.154;13.570;2022-11-20T09:49:36;6.50;99.60
72940;DHT22;61094;51.154;13.570;2022-11-20T09:52:12;6.40;84.10
72940;DHT22;61094;51.154;13.570;2022-11-20T09:54:44;6.60;90.90
72940;DHT22;61094;51.154;13.570;2022-11-20T09:57:13;6.80;98.30
72940;DHT22;61094;51.154;13.570;2022-11-20T09:59:44;7.00;95.00
72940;DHT22;61094;51.154;13.570;2022-11-20T10:02:16;7.20;96.30
72940;DHT22;61094;51.154;13.570;2022-11-20T10:04:47;7.30;95.30
72940;DHT22;61094;51.154;13.570;2022-11-20T10:07:18;7.50;86.00
72940;DHT22;61094;51.154;13.570;2022-11-20T10:09:50;7.80;96.30
72940;DHT22;61094;51.154;13.570;2022-11-20T10:12:23;8.00;93.70
72940;DHT22;61094;51.154;13.570;2022-11-20T10:15:04;8.20;93.50
72940;DHT22;61094;51.154;13.570;2022-11-20T10:20:35;8.60;77.40
72940;DHT22;61094;51.154;13.570;2022-11-20T10:26:02;8.90;83.90
72940;DHT22;61094;51.154;13.570;2022-11-20T10:28:38;8.90;82.30
72940;DHT22;61094;51.154;13.570;2022-11-20T10:31:12;9.00;76.50
72940;DHT22;61094;51.154;13.570;2022-11-20T10:33:43;9.10;52.00
72940;DHT22;61094;51.154;13.570;2022-11-20T10:36:16;9.30;90.70
72940;DHT22;61094;51.154;13.570;2022-11-20T10:38:46;9.40;91.50
72940;DHT22;61094;51.154;13.570;2022-11-20T10:41:17;9.60;97.90
72940;DHT22;61094;51.154;13.570;2022-11-20T10:44:00;9.70;97.20
72940;DHT22;61094;51.154;13.570;2022-11-20T10:46:35;9.80;58.60
72940;DHT22;61094;51.154;13.570;2022-11-20T10:49:09;9.60;91.70
72940;DHT22;61094;51.154;13.570;2022-11-20T10:51:41;9.40;92.70
72940;DHT22;61094;51.154;13.570;2022-11-20T10:54:18;9.00;87.90
72940;DHT22;61094;51.154;13.570;2022-11-20T10:56:50;8.70;90.10
72940;DHT22;61094;51.154;13.570;2022-11-20T10:59:38;8.60;92.20
72940;DHT22;61094;51.154;13.570;2022-11-20T11:02:21;8.40;59.70
72940;DHT22;61094;51.154;13.570;2022-11-20T11:04:49;8.30;64.70
72940;DHT22;61094;51.154;13.570;2022-11-20T11:07:20;8.20;96.10
72940;DHT22;61094;51.154;13.570;2022-11-20T11:09:52;8.00;77.10
72940;DHT22;61094;51.154;13.570;2022-11-20T11:12:20;7.60;71.70
72940;DHT22;61094;51.154;13.570;2022-11-20T11:14:48;7.50;99.90
72940;DHT22;61094;51.154;13.570;2022-11-20T11:17:26;7.60;99.90
72940;DHT22;61094;51.154;13.570;2022-11-20T11:20:02;7.60;99.90
72940;DHT22;61094;51.154;13.570;2022-11-20T11:22:30;7.20;83.10
72940;DHT22;61094;51.154;13.570;2022-11-20T11:24:57;6.80;99.90
72940;DHT22;61094;51.154;13.570;2022-11-20T11:27:24;6.10;99.90
72940;DHT22;61094;51.154;13.570;2022-11-20T11:30:10;5.70;99.90
72940;DHT22;61094;51.154;13.570;2022-11-20T11:32:39;5.60;99.90
72940;DHT22;61094;51.154;13.570;2022-11-20T11:35:18;5.60;99.90
72940;DHT22;61094;51.154;13.570;2022-11-20T11:37:46;5.60;99.50
72940;DHT22;61094;51.154;13.570;2022-11-20T11:40:14;5.60;99.80
72940;DHT22;61094;51.154;13.570;2022-11-20T11:42:42;5.70;99.90
72940;DHT22;61094;51.154;13.570;2022-11-20T11:45:14;5.80;99.90
72940;DHT22;61094;51.154;13.570;2022-11-20T11:47:46;5.80;99.00
72940;DHT22;61094;51.154;13.570;2022-11-20T11:50:19;5.80;99.90
72940;DHT22;61094;51.154;13.570;2022-11-20T11:52:53;5.70;99.90
72940;DHT22;61094;51.154;13.570;2022-11-20T11:55:28;5.70;99.90
72940;DHT22;61094;51.154;13.570;2022-11-20T11:58:04;5.60;99.90
72940;DHT22;61094;51.154;13.570;2022-11-20T12:00:33;5.40;99.90
72940;DHT22;61094;51.154;13.570;2022-11-20T12:03:11;5.40;97.90
72940;DHT22;61094;51.154;13.570;2022-11-20T12:05:43;5.50;99.90
72940;DHT22;61094;51.154;13.570;2022-11-20T12:08:16;5.40;99.90
72940;DHT22;61094;51.154;13.570;2022-11-20T12:10:48;5.20;99.90
72940;DHT22;61094;51.154;13.570;2022-11-20T12:13:34;5.10;99.90
72940;DHT22;61094;51.154;13.570;2022-11-20T12:16:04;5.10;88.50
72940;DHT22;61094;51.154;13.570;2022-11-20T12:18:34;5.10;99.90
72940;DHT22;61094;51.154;13.570;2022-11-20T12:21:11;5.10;99.90
72940;DHT22;61094;51.154;13.570;2022-11-20T12:23:47;5.10;99.90
72940;DHT22;61094;51.154;13.570;2022-11-20T12:26:31;5.10;97.40
72940;DHT22;61094;51.154;13.570;2022-11-20T12:29:07;5.30;99.90
72940;DHT22;61094;51.154;13.570;2022-11-20T12:31:50;5.50;99.90
72940;DHT22;61094;51.154;13.570;2022-11-20T12:34:40;5.60;99.90
72940;DHT22;61094;51.154;13.570;2022-11-20T12:37:17;5.60;99.90
72940;DHT22;61094;51.154;13.570;2022-11-20T12:39:49;5.50;99.90
72940;DHT22;61094;51.154;13.570;2022-11-20T12:42:23;5.30;99.90
72940;DHT22;61094;51.154;13.570;2022-11-20T12:45:25;4.90;85.50
72940;DHT22;61094;51.154;13.570;2022-11-20T12:51:09;4.30;99.90
72940;DHT22;61094;51.154;13.570;2022-11-20T12:53:49;4.00;95.80
72940;DHT22;61094;51.154;13.570;2022-11-20T12:56:26;3.80;99.90
72940;DHT22;61094;51.154;13.570;2022-11-20T12:59:08;3.60;90.70
72940;DHT22;61094;51.154;13.570;2022-11-20T13:01:42;3.60;99.90
72940;DHT22;61094;51.154;13.570;2022-11-20T13:04:23;3.60;99.90
72940;DHT22;61094;51.154;13.570;2022-11-20T13:07:00;3.60;99.90
72940;DHT22;61094;51.154;13.570;2022-11-20T13:09:28;3.60;99.90
72940;DHT22;61094;51.154;13.570;2022-11-20T13:12:02;3.50;99.90
72940;DHT22;61094;51.154;13.570;2022-11-20T13:14:32;3.40;99.90
72940;DHT22;61094;51.154;13.570;2022-11-20T13:17:09;3.40;99.90
72940;DHT22;61094;51.154;13.570;2022-11-20T13:19:38;3.30;99.90
72940;DHT22;61094;51.154;13.570;2022-11-20T13:22:08;3.30;99.90
72940;DHT22;61094;51.154;13.570;2022-11-20T13:24:35;3.40;99.90
72940;DHT22;61094;51.154;13.570;2022-11-20T13:27:20;3.40;99.90
72940;DHT22;61094;51.154;13.570;2022-11-20T13:30:00;3.50;99.90
72940;DHT22;61094;51.154;13.570;2022-11-20T13:32:27;3.40;99.90
72940;DHT22;61094;51.154;13.570;2022-11-20T13:34:58;3.40;99.90
72940;DHT22;61094;51.154;13.570;2022-11-20T13:37:30;3.40;99.90
72940;DHT22;61094;51.154;13.570;2022-11-20T13:40:21;3.50;99.90
72940;DHT22;61094;51.154;13.570;2022-11-20T13:42:55;3.70;99.90
72940;DHT22;61094;51.154;13.570;2022-11-20T13:45:25;3.80;99.90
72940;DHT22;61094;51.154;13.570;2022-11-20T13:47:53;4.00;99.90
72940;DHT22;61094;51.154;13.570;2022-11-20T13:50:31;4.10;99.90
72940;DHT22;61094;51.154;13.570;2022-11-20T13:53:17;4.20;99.90
72940;DHT22;61094;51.154;13.570;2022-11-20T13:55:54;4.30;99.90
72940;DHT22;61094;51.154;13.570;2022-11-20T13:58:30;4.40;99.90
72940;DHT22;61094;51.154;13.570;2022-11-20T14:01:07;4.50;99.90
72940;DHT22;61094;51.154;13.570;2022-11-20T14:03:35;4.60;99.90
72940;DHT22;61094;51.154;13.570;2022-11-20T14:06:04;4.60;99.90
72940;DHT22;61094;51.154;13.570;2022-11-20T14:08:40;4.50;99.90
72940;DHT22;61094;51.154;13.570;2022-11-20T14:11:15;4.50;99.90
72940;DHT22;61094;51.154;13.570;2022-11-20T14:13:56;4.40;99.20
72940;DHT22;61094;51.154;13.570;2022-11-20T14:16:24;4.30;99.90
72940;DHT22;61094;51.154;13.570;2022-11-20T14:18:51;4.30;99.90
72940;DHT22;61094;51.154;13.570;2022-11-20T14:21:23;4.10;99.90
72940;DHT22;61094;51.154;13.570;2022-11-20T14:23:54;4.10;99.90
72940;DHT22;61094;51.154;13.570;2022-11-20T14:26:21;3.90;99.90
72940;DHT22;61094;51.154;13.570;2022-11-20T14:28:49;3.80;99.90
72940;DHT22;61094;51.154;13.570;2022-11-20T14:31:21;3.70;99.90
72940;DHT22;61094;51.154;13.570;2022-11-20T14:33:49;3.60;99.90
72940;DHT22;61094;51.154;13.570;2022-11-20T14:36:17;3.50;99.90
72940;DHT22;61094;51.154;13.570;2022-11-20T14:38:45;3.40;97.30
72940;DHT22;61094;51.154;13.570;2022-11-20T14:41:18;3.30;99.90
72940;DHT22;61094;51.154;13.570;2022-11-20T14:43:47;3.20;99.90
72940;DHT22;61094;51.154;13.570;2022-11-20T14:46:16;3.00;99.90
72940;DHT22;61094;51.154;13.570;2022-11-20T14:48:46;2.80;99.90
72940;DHT22;61094;51.154;13.570;2022-11-20T14:51:27;2.70;99.90
72940;DHT22;61094;51.154;13.570;2022-11-20T14:53:55;2.60;99.90
72940;DHT22;61094;51.154;13.570;2022-11-20T14:56:24;2.50;99.90
72940;DHT22;61094;51.154;13.570;2022-11-20T14:58:57;2.40;99.90
72940;DHT22;61094;51.154;13.570;2022-11-20T15:01:28;2.20;99.90
72940;DHT22;61094;51.154;13.570;2022-11-20T15:04:06;2.00;99.10
72940;DHT22;61094;51.154;13.570;2022-11-20T15:06:33;1.90;99.90
72940;DHT22;61094;51.154;13.570;2022-11-20T15:09:01;1.80;99.90
72940;DHT22;61094;51.154;13.570;2022-11-20T15:11:32;1.60;99.90
72940;DHT22;61094;51.154;13.570;2022-11-20T15:14:03;1.50;99.90
72940;DHT22;61094;51.154;13.570;2022-11-20T15:16:31;1.30;99.90
72940;DHT22;61094;51.154;13.570;2022-11-20T15:18:58;1.20;99.90
72940;DHT22;61094;51.154;13.570;2022-11-20T15:21:25;1.10;99.90
72940;DHT22;61094;51.154;13.570;2022-11-20T15:23:52;1.00;99.90
72940;DHT22;61094;51.154;13.570;2022-11-20T15:26:23;1.00;99.90
72940;DHT22;61094;51.154;13.570;2022-11-20T15:28:52;0.90;99.90
72940;DHT22;61094;51.154;13.570;2022-11-20T15:31:20;0.80;99.90
72940;DHT22;61094;51.154;13.570;2022-11-20T15:33:48;0.80;99.90
72940;DHT22;61094;51.154;13.570;2022-11-20T15:36:14;0.70;99.90
72940;DHT22;61094;51.154;13.570;2022-11-20T15:38:41;0.70;99.90
72940;DHT22;61094;51.154;13.570;2022-11-20T15:41:08;0.60;99.90
72940;DHT22;61094;51.154;13.570;2022-11-20T15:43:36;0.60;99.90
72940;DHT22;61094;51.154;13.570;2022-11-20T15:46:06;0.50;99.90
72940;DHT22;61094;51.154;13.570;2022-11-20T15:48:37;0.50;99.90
72940;DHT22;61094;51.154;13.570;2022-11-20T15:51:11;0.50;99.90